Time;durP1;ratioP1;P1;durP2;ratioP2;P2;SDS_P1;SDS_P2;PMS_P1;PMS_P2;Temp;Humidity;BMP_temperature;BMP_pressure;BME280_temperature;BME280_humidity;BME280_pressure;Samples;Min_cycle;Max_cycle;Signal;HPM_P1;HPM_P2
2023/02/20 00:01:51;;;;;;;9.65;6.95;;;;;;;10.09;50.45;95094.66;5107385;28;20044;-79
2023/02/20 00:04:17;;;;;;;10.03;7.63;;;;;;;10.08;50.56;95114.59;5073780;28;20394;-79
2023/02/20 00:06:43;;;;;;;10.82;7.47;;;;;;;9.99;50.76;95099.72;5072076;28;20032;-79
2023/02/20 00:09:08;;;;;;;10.35;8.00;;;;;;;10.03;51.19;95109.75;5090242;28;20024;-79
2023/02/20 00:11:34;;;;;;;11.23;7.10;;;;;;;10.12;50.80;95104.81;5090410;28;20065;-79
2023/02/20 00:13:59;;;;;;;11.45;7.88;;;;;;;10.06;51.15;95106.94;5073278;28;20031;-79
2023/02/20 00:16:24;;;;;;;10.40;7.50;;;;;;;10.00;51.33;95109.16;5090230;28;20024;-79
2023/02/20 00:18:50;;;;;;;11.23;7.90;;;;;;;9.80;51.53;95089.91;5089538;28;20393;-80
2023/02/20 00:21:15;;;;;;;10.82;7.75;;;;;;;9.85;51.89;95106.78;5089835;28;20043;-79
2023/02/20 00:23:41;;;;;;;10.77;7.68;;;;;;;9.68;51.70;95076.09;5073200;28;20562;-79
2023/02/20 00:26:10;;;;;;;15.23;7.50;;;;;;;9.80;51.93;95098.50;5073013;28;20044;-79
2023/02/20 00:28:38;;;;;;;11.82;7.80;;;;;;;9.84;52.07;95118.09;5089503;28;20024;-79
2023/02/20 00:31:05;;;;;;;11.35;8.15;;;;;;;9.82;52.33;95116.56;5073025;28;20028;-79
2023/02/20 00:33:30;;;;;;;11.25;8.32;;;;;;;9.73;52.81;95128.47;5073307;28;20055;-79
2023/02/20 00:35:55;;;;;;;11.55;8.18;;;;;;;9.81;52.60;95125.28;5089769;28;20498;-79
2023/02/20 00:38:21;;;;;;;10.48;7.90;;;;;;;9.69;52.56;95106.25;5089629;28;20065;-79
2023/02/20 00:40:46;;;;;;;11.75;8.10;;;;;;;9.79;52.68;95116.78;5073118;28;20043;-79
2023/02/20 00:43:12;;;;;;;11.32;8.40;;;;;;;9.59;52.92;95069.00;5076066;28;20024;-79
2023/02/20 00:45:37;;;;;;;10.10;7.97;;;;;;;9.59;52.89;95094.94;5076920;28;20077;-79
2023/02/20 00:48:03;;;;;;;10.70;8.38;;;;;;;9.40;53.03;95056.56;5094594;28;20484;-80
2023/02/20 00:50:29;;;;;;;11.52;8.40;;;;;;;9.52;53.06;95078.16;5093884;28;20028;-79
2023/02/20 00:52:54;;;;;;;10.52;8.13;;;;;;;9.46;53.26;95081.22;5093697;28;20471;-79
2023/02/20 00:55:19;;;;;;;10.23;7.95;;;;;;;9.45;52.88;95083.00;5076744;28;20402;-79
2023/02/20 00:57:45;;;;;;;11.30;8.13;;;;;;;9.50;52.74;95075.69;5089842;28;20059;-79
2023/02/20 01:00:19;;;;;;;10.13;7.90;;;;;;;9.52;52.85;95094.53;5056596;28;20040;-79
2023/02/20 01:02:45;;;;;;;10.07;7.50;;;;;;;9.54;52.89;95112.59;5073560;28;20067;-79
2023/02/20 01:05:10;;;;;;;11.60;8.05;;;;;;;9.34;53.16;95093.34;5073011;28;20506;-79
2023/02/20 01:07:36;;;;;;;10.95;7.70;;;;;;;9.38;53.38;95108.53;5094382;28;20393;-79
2023/02/20 01:10:01;;;;;;;9.02;7.05;;;;;;;9.43;53.02;95112.56;5093421;28;20089;-79
2023/02/20 01:12:27;;;;;;;11.35;7.57;;;;;;;9.25;53.75;95115.56;5093579;28;20038;-79
2023/02/20 01:14:52;;;;;;;11.00;8.27;;;;;;;9.23;53.68;95135.59;5076191;28;20043;-79
2023/02/20 01:17:18;;;;;;;11.82;8.23;;;;;;;9.27;53.98;95138.78;5094940;28;20375;-79
2023/02/20 01:19:43;;;;;;;11.48;8.30;;;;;;;9.27;54.32;95139.59;5076326;28;20061;-79
2023/02/20 01:22:09;;;;;;;11.45;8.15;;;;;;;9.18;54.36;95154.06;5093205;28;20057;-79
2023/02/20 01:24:34;;;;;;;12.32;8.23;;;;;;;9.14;54.65;95152.63;5075577;28;20035;-79
2023/02/20 01:27:00;;;;;;;12.02;8.05;;;;;;;9.08;54.68;95144.44;5076052;28;20035;-79
2023/02/20 01:29:25;;;;;;;11.57;8.23;;;;;;;9.13;54.42;95145.78;5076628;28;20413;-79
2023/02/20 01:31:51;;;;;;;12.25;7.82;;;;;;;9.07;54.58;95151.41;5075795;28;20012;-79
2023/02/20 01:34:16;;;;;;;12.73;8.63;;;;;;;9.05;54.65;95153.28;5094001;28;20035;-79
2023/02/20 01:36:48;;;;;;;12.38;7.82;;;;;;;9.03;55.11;95151.75;5092729;28;20111;-79
2023/02/20 01:39:23;;;;;;;11.77;8.43;;;;;;;9.01;55.11;95143.25;5059645;28;20123;-79
2023/02/20 01:41:49;;;;;;;12.07;8.45;;;;;;;9.19;55.10;95154.88;5091608;28;20082;-79
2023/02/20 01:44:29;;;;;;;13.98;8.77;;;;;;;9.06;55.33;95152.34;5092566;28;20032;-79
2023/02/20 01:46:55;;;;;;;11.25;8.27;;;;;;;9.12;55.28;95153.69;5092540;28;20024;-80
2023/02/20 01:49:36;;;;;;;14.73;9.20;;;;;;;8.99;55.75;95158.91;5092556;28;20414;-80
2023/02/20 01:52:07;;;;;;;11.45;8.10;;;;;;;9.07;55.70;95158.34;5075983;28;20032;-79
2023/02/20 01:54:33;;;;;;;11.38;8.20;;;;;;;9.16;55.66;95168.06;5092033;28;20094;-79
2023/02/20 01:56:59;;;;;;;12.02;8.60;;;;;;;8.99;56.16;95147.72;5091442;28;20086;-79
2023/02/20 01:59:25;;;;;;;11.88;7.97;;;;;;;9.07;55.97;95142.81;5091837;28;20043;-80
2023/02/20 02:01:51;;;;;;;11.18;8.13;;;;;;;9.26;55.97;95176.84;5075545;28;20032;-79
2023/02/20 02:04:16;;;;;;;13.13;9.52;;;;;;;9.13;56.50;95174.28;5092244;28;20524;-79
2023/02/20 02:06:45;;;;;;;15.90;9.95;;;;;;;9.10;56.95;95176.28;5091689;28;20603;-79
2023/02/20 02:09:53;;;;;;;12.52;8.70;;;;;;;9.18;56.64;95192.13;5105313;28;20064;-79
2023/02/20 02:12:19;;;;;;;11.70;9.07;;;;;;;9.11;56.72;95193.47;5071752;28;20036;-80
2023/02/20 02:14:44;;;;;;;12.75;8.48;;;;;;;9.20;56.56;95198.03;5054865;28;20078;-80
2023/02/20 02:17:19;;;;;;;13.00;8.90;;;;;;;9.04;56.80;95187.09;5070659;28;20032;-79
2023/02/20 02:19:54;;;;;;;10.95;7.03;;;;;;;9.01;56.34;95202.84;5093150;28;20905;-79
2023/02/20 02:22:34;;;;;;;9.18;6.28;;;;;;;9.01;55.66;95182.13;5093649;28;20034;-80
2023/02/20 02:25:02;;;;;;;6.57;4.32;;;;;;;9.10;54.67;95189.25;5091333;28;20058;-79
2023/02/20 02:27:46;;;;;;;5.93;4.10;;;;;;;8.93;55.06;95200.78;5093082;28;20039;-79
2023/02/20 02:30:31;;;;;;;6.10;4.00;;;;;;;8.94;54.59;95197.25;5091614;28;20173;-79
2023/02/20 02:33:05;;;;;;;5.80;4.03;;;;;;;8.96;54.59;95200.56;5091135;28;20159;-79
2023/02/20 02:35:31;;;;;;;6.90;4.32;;;;;;;8.90;54.81;95196.66;5072592;28;20111;-79
2023/02/20 02:38:25;;;;;;;6.45;4.43;;;;;;;8.84;55.26;95202.28;5071420;28;20127;-79
2023/02/20 02:41:00;;;;;;;6.22;4.05;;;;;;;8.83;55.51;95205.81;5054992;28;20028;-79
2023/02/20 02:43:45;;;;;;;6.65;4.35;;;;;;;8.81;54.95;95206.84;5072605;28;20033;-79
2023/02/20 02:46:33;;;;;;;5.88;4.10;;;;;;;8.71;55.07;95198.88;5085901;28;20042;-79
2023/02/20 02:49:21;;;;;;;5.20;3.60;;;;;;;8.57;55.13;95188.63;5075188;28;20041;-79
2023/02/20 02:51:47;;;;;;;5.05;3.22;;;;;;;8.62;54.66;95189.16;5077479;28;20498;-80
2023/02/20 02:54:23;;;;;;;4.13;2.70;;;;;;;8.57;54.68;95224.91;5091070;28;20161;-79
2023/02/20 02:56:48;;;;;;;4.15;2.22;;;;;;;8.46;53.74;95200.56;5075587;28;20657;-79
2023/02/20 02:59:24;;;;;;;3.38;2.17;;;;;;;8.32;54.15;95205.81;5091213;28;20040;-79
2023/02/20 03:01:52;;;;;;;3.22;2.20;;;;;;;8.38;54.09;95217.50;5075091;28;20450;-79
2023/02/20 03:04:22;;;;;;;3.08;2.22;;;;;;;8.26;54.21;95212.22;5057472;28;20060;-79
2023/02/20 03:06:48;;;;;;;4.05;2.05;;;;;;;8.30;54.46;95238.72;5091439;28;20036;-79
2023/02/20 03:09:16;;;;;;;3.15;2.00;;;;;;;8.36;54.52;95243.53;5091140;28;20099;-79
2023/02/20 03:11:42;;;;;;;3.17;2.15;;;;;;;8.32;54.28;95236.88;5090674;28;20024;-79
2023/02/20 03:17:17;;;;;;;3.78;2.17;;;;;;;8.18;54.77;95240.38;5070393;28;20126;-79
2023/02/20 03:19:48;;;;;;;3.58;2.30;;;;;;;8.22;54.46;95222.91;5070756;28;20036;-79
2023/02/20 03:22:24;;;;;;;3.13;2.10;;;;;;;8.40;54.06;95234.63;5070657;28;20070;-79
2023/02/20 03:24:54;;;;;;;5.15;2.38;;;;;;;8.32;54.03;95229.09;5078266;28;20286;-79
2023/02/20 03:27:43;;;;;;;3.63;2.25;;;;;;;8.31;54.16;95248.16;5074487;28;20024;-79
2023/02/20 03:30:11;;;;;;;3.78;2.60;;;;;;;8.22;54.52;95236.69;5090367;28;20071;-79
2023/02/20 03:43:35;;;;;;;3.08;2.17;;;;;;;8.02;55.46;95271.63;5076139;28;20042;-79
2023/02/20 03:46:11;;;;;;;3.67;2.55;;;;;;;7.96;55.76;95253.09;5073594;28;20422;-79
2023/02/20 03:48:42;;;;;;;33.53;13.90;;;;;;;7.95;55.80;95260.03;5073699;28;20032;-79
2023/02/20 03:51:09;;;;;;;4.00;2.67;;;;;;;7.99;55.44;95264.06;5070283;28;20166;-79
2023/02/20 03:53:34;;;;;;;5.28;2.80;;;;;;;7.94;56.05;95271.31;5052001;28;20090;-79
2023/02/20 03:56:01;;;;;;;3.00;2.25;;;;;;;7.99;55.83;95269.22;5087440;28;20613;-79
2023/02/20 03:58:27;;;;;;;2.97;2.13;;;;;;;8.02;55.33;95258.69;5056870;28;20134;-79
2023/02/20 04:00:53;;;;;;;4.65;3.10;;;;;;;7.98;55.45;95267.56;5069151;28;20098;-79
2023/02/20 04:03:22;;;;;;;5.70;2.85;;;;;;;7.82;55.83;95282.44;5061880;28;20417;-79
2023/02/20 04:05:49;;;;;;;4.20;2.70;;;;;;;7.91;55.69;95283.59;5090147;28;20038;-79
2023/02/20 04:08:27;;;;;;;4.18;2.50;;;;;;;7.90;54.98;95277.59;5073696;28;20093;-79
2023/02/20 04:10:56;;;;;;;4.43;2.22;;;;;;;7.72;55.10;95246.00;5074103;28;20477;-79
2023/02/20 04:13:21;;;;;;;3.40;2.42;;;;;;;7.59;55.17;95235.59;5057038;28;20059;-79
2023/02/20 04:15:47;;;;;;;4.13;2.78;;;;;;;7.81;54.79;95288.53;5072253;28;20410;-79
2023/02/20 04:18:14;;;;;;;3.38;2.25;;;;;;;7.74;54.47;95282.09;5093152;28;20421;-79
2023/02/20 04:20:39;;;;;;;3.83;2.63;;;;;;;7.80;53.71;95289.44;5095586;28;20048;-79
2023/02/20 04:23:12;;;;;;;2.90;1.90;;;;;;;7.67;53.92;95281.66;5093857;28;20028;-79
2023/02/20 04:25:58;;;;;;;3.25;1.73;;;;;;;7.70;54.23;95293.56;5074595;28;20505;-79
2023/02/20 04:28:24;;;;;;;3.20;1.98;;;;;;;7.65;54.10;95288.69;5073717;28;20039;-79
2023/02/20 04:30:49;;;;;;;2.78;1.77;;;;;;;7.80;53.95;95302.38;5064899;28;20032;-79
2023/02/20 04:33:15;;;;;;;8.40;4.18;;;;;;;7.80;54.25;95307.56;5077420;28;20032;-80
2023/02/20 04:35:40;;;;;;;5.05;3.53;;;;;;;7.83;53.93;95303.03;5093762;28;20042;-79
2023/02/20 04:38:06;;;;;;;4.65;3.80;;;;;;;7.71;54.24;95298.63;5093839;28;20512;-79
2023/02/20 04:40:32;;;;;;;4.70;2.75;;;;;;;7.89;54.64;95321.69;5093764;28;20028;-80
2023/02/20 04:42:57;;;;;;;3.72;2.50;;;;;;;7.39;54.80;95236.06;5077073;28;20047;-79
2023/02/20 04:45:23;;;;;;;8.02;4.93;;;;;;;7.69;55.33;95289.31;5093955;28;20032;-79
2023/02/20 04:47:48;;;;;;;6.72;3.20;;;;;;;7.72;55.45;95284.78;5093835;28;20512;-79
2023/02/20 04:50:34;;;;;;;2.88;2.00;;;;;;;7.80;55.06;95299.78;5076840;28;20024;-79
2023/02/20 04:53:00;;;;;;;6.95;4.85;;;;;;;7.59;55.43;95282.16;5094074;28;20055;-79
2023/02/20 04:55:25;;;;;;;4.93;3.67;;;;;;;7.62;55.43;95317.31;5076814;28;20020;-79
2023/02/20 04:57:52;;;;;;;3.78;2.63;;;;;;;7.68;55.10;95326.47;5076335;28;20064;-79
2023/02/20 05:00:18;;;;;;;4.43;1.90;;;;;;;7.56;54.37;95321.13;5093657;28;20044;-79
2023/02/20 05:02:43;;;;;;;3.58;2.28;;;;;;;7.59;53.92;95336.44;5073081;28;20033;-79
2023/02/20 05:05:19;;;;;;;3.15;1.92;;;;;;;7.54;53.90;95328.16;5073069;28;20102;-79
2023/02/20 05:07:45;;;;;;;3.00;2.13;;;;;;;7.60;53.59;95322.63;5074239;28;20024;-79
2023/02/20 05:10:15;;;;;;;4.03;2.58;;;;;;;7.38;53.77;95304.16;5066456;28;20386;-79
2023/02/20 05:12:40;;;;;;;3.33;2.30;;;;;;;7.50;52.96;95313.75;5072899;28;20274;-79
2023/02/20 05:15:06;;;;;;;4.97;2.35;;;;;;;7.63;52.54;95331.09;5073431;28;20418;-79
2023/02/20 05:17:32;;;;;;;3.40;1.63;;;;;;;7.61;52.22;95334.59;5089552;28;20406;-79
2023/02/20 05:19:57;;;;;;;3.47;1.77;;;;;;;7.45;52.12;95325.31;5086822;28;20433;-80
2023/02/20 05:22:22;;;;;;;2.58;1.60;;;;;;;7.45;52.13;95327.91;5088738;28;20090;-79
2023/02/20 05:24:49;;;;;;;3.13;1.75;;;;;;;7.52;51.63;95329.16;5089676;28;20036;-79
2023/02/20 05:27:15;;;;;;;4.85;2.65;;;;;;;7.50;51.73;95334.44;5105652;28;20031;-79
2023/02/20 05:29:48;;;;;;;5.35;3.55;;;;;;;7.42;51.84;95356.53;5071069;28;20048;-79
2023/02/20 05:32:15;;;;;;;3.22;1.98;;;;;;;7.51;51.61;95355.97;5088630;28;20059;-80
2023/02/20 05:34:44;;;;;;;3.08;1.83;;;;;;;7.48;51.72;95350.97;5072814;28;20067;-80
2023/02/20 05:37:10;;;;;;;3.55;1.92;;;;;;;7.49;51.38;95342.28;5088942;28;20484;-79
2023/02/20 05:39:39;;;;;;;19.92;8.98;;;;;;;7.61;51.77;95370.81;5072089;28;20032;-80
2023/02/20 05:42:05;;;;;;;7.30;4.13;;;;;;;7.60;51.85;95363.13;5087269;28;20135;-79
2023/02/20 05:44:30;;;;;;;103.07;28.45;;;;;;;7.63;52.27;95369.88;5057001;28;20134;-80
2023/02/20 05:46:56;;;;;;;34.60;11.25;;;;;;;7.64;52.89;95387.06;5089110;28;20028;-79
2023/02/20 05:49:22;;;;;;;8.02;5.10;;;;;;;7.69;52.96;95385.84;5071098;28;20044;-80
2023/02/20 05:51:50;;;;;;;4.78;3.63;;;;;;;7.60;53.19;95386.41;5087460;28;20020;-79
2023/02/20 05:54:16;;;;;;;4.45;3.45;;;;;;;7.53;53.50;95385.97;5086251;28;20124;-79
2023/02/20 05:56:42;;;;;;;4.53;3.78;;;;;;;7.67;53.55;95398.03;5055549;28;20115;-78
2023/02/20 05:59:08;;;;;;;11.48;7.03;;;;;;;7.50;53.93;95388.75;5088527;28;20052;-79
2023/02/20 06:01:33;;;;;;;5.80;4.15;;;;;;;7.42;53.85;95359.13;5052617;28;20576;-80
2023/02/20 06:04:02;;;;;;;8.98;6.60;;;;;;;7.83;53.10;95387.56;5066157;28;20086;-80
2023/02/20 06:06:38;;;;;;;4.90;3.83;;;;;;;7.80;53.22;95393.78;5088529;28;20032;-79
2023/02/20 06:09:06;;;;;;;5.10;3.67;;;;;;;7.84;52.57;95374.53;5086670;28;20032;-80
2023/02/20 06:11:32;;;;;;;5.22;3.78;;;;;;;7.86;52.78;95384.78;5069214;28;20047;-80
2023/02/20 06:13:57;;;;;;;6.38;3.20;;;;;;;7.94;51.42;95392.91;5054718;28;21376;-80
2023/02/20 06:16:24;;;;;;;5.47;3.92;;;;;;;8.12;50.90;95379.72;5054709;28;20040;-80
2023/02/20 06:18:50;;;;;;;5.68;3.10;;;;;;;8.05;50.44;95387.03;5088744;28;20321;-80
2023/02/20 06:21:15;;;;;;;6.05;2.90;;;;;;;8.15;48.75;95390.69;5087303;28;20059;-79
2023/02/20 06:23:42;;;;;;;3.95;2.47;;;;;;;8.11;47.61;95396.16;5071074;28;20039;-80
2023/02/20 06:26:07;;;;;;;2.85;2.03;;;;;;;8.12;47.03;95390.88;5070216;28;20105;-80
2023/02/20 06:28:33;;;;;;;2.97;2.35;;;;;;;8.21;46.34;95385.13;5090534;28;20478;-79
2023/02/20 06:30:58;;;;;;;4.45;2.50;;;;;;;8.34;46.19;95397.28;5091117;28;20051;-80
2023/02/20 06:33:25;;;;;;;4.00;2.83;;;;;;;8.42;45.88;95385.53;5091841;28;20024;-79
2023/02/20 06:35:50;;;;;;;4.63;2.30;;;;;;;8.47;46.01;95380.06;5074200;28;20024;-79
2023/02/20 06:38:16;;;;;;;4.40;2.30;;;;;;;8.65;45.95;95399.56;5091557;28;20062;-79
2023/02/20 06:40:41;;;;;;;3.83;2.78;;;;;;;8.81;44.59;95391.59;5086114;28;20075;-79
2023/02/20 06:43:06;;;;;;;2.83;2.05;;;;;;;8.86;44.79;95397.31;5088652;28;20025;-80
2023/02/20 06:52:53;;;;;;;3.42;2.20;;;;;;;10.26;42.61;95427.38;5089520;28;20066;-80
2023/02/20 06:56:03;;;;;;;4.50;2.38;;;;;;;10.71;41.16;95422.41;5083752;28;20042;-78
2023/02/20 06:58:35;;;;;;;5.28;2.90;;;;;;;11.17;40.51;95411.19;5088847;28;20123;-79
2023/02/20 07:01:00;;;;;;;4.55;2.55;;;;;;;11.52;39.69;95438.03;5084374;28;20317;-81
2023/02/20 07:03:26;;;;;;;3.70;2.30;;;;;;;10.90;40.20;95416.66;5048311;28;20471;-81
2023/02/20 07:05:51;;;;;;;5.82;2.58;;;;;;;11.60;39.55;95433.91;5087249;28;20067;-81
2023/02/20 07:08:17;;;;;;;3.55;2.60;;;;;;;12.46;38.23;95414.16;5066144;28;20024;-81
2023/02/20 07:10:42;;;;;;;4.13;2.88;;;;;;;13.68;36.16;95417.97;5087253;28;20040;-80
2023/02/20 07:13:08;;;;;;;3.30;2.40;;;;;;;14.26;34.16;95393.78;5089178;28;20028;-79
2023/02/20 07:15:33;;;;;;;4.25;2.40;;;;;;;15.82;31.53;95391.81;5089120;28;20082;-77
2023/02/20 07:17:59;;;;;;;3.67;2.88;;;;;;;15.66;30.81;95408.13;5072387;28;20483;-79
2023/02/20 07:20:24;;;;;;;3.80;2.40;;;;;;;17.10;29.18;95425.72;5072649;28;20317;-79
2023/02/20 07:22:51;;;;;;;3.67;2.40;;;;;;;16.53;29.25;95398.97;5073662;28;20047;-79
2023/02/20 07:25:16;;;;;;;3.08;2.35;;;;;;;17.38;28.21;95408.06;5107218;28;20111;-79
2023/02/20 07:27:42;;;;;;;3.53;2.10;;;;;;;17.25;28.78;95425.22;5073857;28;20514;-79
2023/02/20 07:30:08;;;;;;;3.10;2.20;;;;;;;17.32;27.22;95402.59;5091882;28;20043;-79
2023/02/20 07:32:33;;;;;;;3.20;1.83;;;;;;;16.73;27.94;95415.38;5068905;28;20043;-77
2023/02/20 07:34:58;;;;;;;6.93;2.00;;;;;;;16.28;28.54;95405.78;5066816;28;20023;-79
2023/02/20 07:37:24;;;;;;;4.18;1.90;;;;;;;15.88;29.49;95417.44;5086703;28;20118;-80
2023/02/20 07:39:49;;;;;;;4.45;1.98;;;;;;;15.35;29.74;95397.03;5088897;28;20036;-79
2023/02/20 07:42:16;;;;;;;2.88;1.80;;;;;;;15.90;28.74;95393.72;5087263;28;20028;-80
2023/02/20 07:44:45;;;;;;;2.35;1.58;;;;;;;16.08;28.19;95421.63;5104533;28;20065;-79
2023/02/20 07:47:11;;;;;;;3.38;1.55;;;;;;;16.22;28.76;95403.75;5090490;28;20032;-79
2023/02/20 07:49:36;;;;;;;1.83;1.40;;;;;;;15.58;28.65;95410.63;5090018;28;20024;-79
2023/02/20 07:52:02;;;;;;;3.22;1.60;;;;;;;16.49;27.61;95408.09;5084292;28;20111;-79
2023/02/20 07:54:27;;;;;;;4.72;1.70;;;;;;;16.09;27.62;95409.31;5069173;28;20024;-79
2023/02/20 07:56:53;;;;;;;4.90;1.52;;;;;;;16.32;27.58;95422.84;5070293;28;20040;-79
2023/02/20 07:59:19;;;;;;;2.25;1.48;;;;;;;17.32;26.19;95411.28;5070806;28;20040;-80
2023/02/20 08:01:44;;;;;;;3.92;1.30;;;;;;;18.13;24.33;95411.91;5067916;28;20434;-79
2023/02/20 08:04:10;;;;;;;2.03;1.50;;;;;;;18.77;24.41;95428.03;5052771;28;20082;-80
2023/02/20 08:06:35;;;;;;;3.33;1.60;;;;;;;18.05;24.44;95420.56;5071220;28;20123;-79
2023/02/20 08:09:01;;;;;;;2.08;1.20;;;;;;;18.81;23.73;95410.94;5069570;28;20063;-80
2023/02/20 08:11:26;;;;;;;3.08;1.40;;;;;;;19.36;22.64;95402.34;5069751;28;20123;-78
2023/02/20 08:13:54;;;;;;;3.28;1.50;;;;;;;20.14;21.72;95417.47;5036252;28;20071;-78
2023/02/20 08:16:21;;;;;;;2.92;1.20;;;;;;;20.27;20.98;95424.88;5070342;28;20036;-78
2023/02/20 08:18:47;;;;;;;4.03;1.10;;;;;;;20.85;20.54;95420.13;5069609;28;20032;-78
2023/02/20 08:21:12;;;;;;;4.50;1.20;;;;;;;21.07;20.54;95418.47;5069384;28;20036;-78
2023/02/20 08:23:38;;;;;;;5.28;1.25;;;;;;;20.14;20.83;95398.22;5052911;28;20036;-78
2023/02/20 08:26:04;;;;;;;2.85;1.02;;;;;;;20.19;21.20;95411.72;5069658;28;20040;-78
2023/02/20 08:28:29;;;;;;;4.15;0.90;;;;;;;18.71;22.92;95424.22;5052873;28;20052;-78
2023/02/20 08:30:55;;;;;;;2.05;1.13;;;;;;;17.56;24.59;95429.00;5052860;28;20491;-78
2023/02/20 08:33:20;;;;;;;3.85;0.88;;;;;;;17.22;25.23;95435.97;5069543;28;20093;-78
2023/02/20 08:35:48;;;;;;;5.95;1.10;;;;;;;15.92;27.02;95445.00;5036163;28;20041;-77
2023/02/20 08:38:26;;;;;;;5.20;0.80;;;;;;;15.38;27.47;95425.59;5069417;28;20028;-77
2023/02/20 08:40:51;;;;;;;1.50;0.80;;;;;;;14.14;28.63;95392.25;5052827;28;20044;-79
2023/02/20 08:43:17;;;;;;;8.77;0.85;;;;;;;13.99;29.68;95436.22;5069434;28;20024;-79
2023/02/20 08:45:42;;;;;;;2.22;0.82;;;;;;;13.55;30.16;95459.13;5052626;28;20040;-79
2023/02/20 08:48:08;;;;;;;4.32;1.17;;;;;;;12.84;30.53;95406.75;5052646;28;20025;-79
2023/02/20 08:50:33;;;;;;;2.47;0.68;;;;;;;12.71;31.38;95451.25;5069316;28;20029;-79
2023/02/20 08:52:59;;;;;;;2.88;0.95;;;;;;;12.48;31.94;95404.44;5069260;28;20028;-79
2023/02/20 08:55:24;;;;;;;3.33;1.00;;;;;;;12.60;32.26;95425.25;5069276;28;20024;-79
2023/02/20 08:57:50;;;;;;;2.47;0.90;;;;;;;12.34;32.15;95441.19;5069054;28;20525;-79
2023/02/20 09:00:16;;;;;;;6.45;3.15;;;;;;;12.21;32.74;95445.72;5069200;28;20092;-79
2023/02/20 09:02:41;;;;;;;6.70;2.40;;;;;;;11.94;33.07;95418.28;5053370;28;20040;-79
2023/02/20 09:05:07;;;;;;;11.40;1.65;;;;;;;11.80;33.62;95415.91;5039544;28;20044;-79
2023/02/20 09:07:32;;;;;;;8.38;3.22;;;;;;;11.66;33.69;95403.16;5074397;28;20059;-79
2023/02/20 09:09:58;;;;;;;4.18;1.83;;;;;;;11.84;33.26;95423.38;5039403;28;20029;-79
2023/02/20 09:12:23;;;;;;;4.72;1.58;;;;;;;11.51;33.78;95418.19;5039540;28;20040;-79
2023/02/20 09:14:49;;;;;;;4.07;1.25;;;;;;;11.37;34.64;95414.84;5074022;28;20028;-79
2023/02/20 09:17:15;;;;;;;2.88;1.35;;;;;;;11.35;34.70;95421.13;5072745;28;20028;-79
2023/02/20 09:19:40;;;;;;;5.00;1.90;;;;;;;11.51;34.61;95398.19;5039478;28;20180;-79
2023/02/20 09:22:06;;;;;;;8.00;2.67;;;;;;;11.70;34.69;95392.41;5073990;28;20540;-79
2023/02/20 09:24:33;;;;;;;2.97;1.20;;;;;;;11.84;34.63;95399.13;5072734;28;20449;-79
2023/02/20 09:27:02;;;;;;;1.80;1.23;;;;;;;11.84;34.76;95409.53;5055893;28;20038;-79
2023/02/20 09:29:27;;;;;;;17.38;8.05;;;;;;;11.93;34.99;95434.06;5073626;28;20055;-79
2023/02/20 09:31:53;;;;;;;8.82;3.60;;;;;;;11.76;34.75;95430.13;5055591;28;20158;-79
2023/02/20 09:34:19;;;;;;;8.10;3.65;;;;;;;11.75;34.56;95418.03;5072389;28;20431;-79
2023/02/20 09:36:44;;;;;;;6.15;2.58;;;;;;;11.57;35.06;95407.31;5055570;28;20585;-79
2023/02/20 09:39:10;;;;;;;3.88;1.50;;;;;;;11.54;35.47;95421.38;5072301;28;20021;-79
2023/02/20 09:42:06;;;;;;;2.47;1.10;;;;;;;11.65;35.61;95411.91;5055770;28;20032;-79
2023/02/20 09:44:44;;;;;;;6.20;3.30;;;;;;;11.80;35.33;95403.72;5073473;28;20029;-79
2023/02/20 09:47:33;;;;;;;4.88;2.30;;;;;;;11.67;35.79;95425.63;5073761;28;20032;-79
2023/02/20 09:50:00;;;;;;;2.92;1.20;;;;;;;11.77;35.40;95411.78;5073457;28;20486;-79
2023/02/20 09:52:26;;;;;;;1.98;0.80;;;;;;;11.62;35.72;95429.41;5038950;28;20028;-79
2023/02/20 09:54:53;;;;;;;4.70;1.88;;;;;;;11.75;36.04;95423.25;5055193;28;20387;-79
2023/02/20 09:57:25;;;;;;;9.85;3.65;;;;;;;11.81;35.39;95420.16;5055281;28;20175;-79
2023/02/20 10:00:07;;;;;;;16.60;5.70;;;;;;;11.80;36.00;95406.31;5055599;28;20032;-79
2023/02/20 10:02:37;;;;;;;10.80;3.80;;;;;;;11.92;35.56;95409.75;5056175;28;20414;-79
2023/02/20 10:05:09;;;;;;;4.38;2.65;;;;;;;12.22;35.47;95432.56;5055594;28;20486;-79
2023/02/20 10:07:36;;;;;;;8.27;3.20;;;;;;;12.13;34.75;95429.88;5071688;28;20482;-79
2023/02/20 10:10:16;;;;;;;4.50;1.65;;;;;;;11.97;34.47;95440.66;5055411;28;20098;-79
2023/02/20 10:12:49;;;;;;;1.88;0.80;;;;;;;11.79;34.66;95429.88;5055077;28;20056;-79
2023/02/20 10:15:19;;;;;;;2.22;1.30;;;;;;;11.99;33.77;95437.00;5055371;28;20025;-79
2023/02/20 10:18:03;;;;;;;2.67;1.77;;;;;;;11.92;34.00;95455.81;5055425;28;20037;-79
2023/02/20 10:20:40;;;;;;;1.95;1.02;;;;;;;11.81;33.61;95441.84;5072562;28;20090;-79
2023/02/20 10:23:39;;;;;;;3.05;0.80;;;;;;;11.84;32.88;95422.56;5072661;28;20071;-79
2023/02/20 10:26:08;;;;;;;4.20;1.17;;;;;;;11.95;33.37;95419.97;5071513;28;20503;-79
2023/02/20 10:28:33;;;;;;;2.20;0.70;;;;;;;11.94;32.80;95417.47;5054946;28;20024;-79
2023/02/20 10:31:08;;;;;;;3.60;1.00;;;;;;;11.89;32.75;95391.78;5054743;28;20035;-79
2023/02/20 10:33:42;;;;;;;3.72;0.90;;;;;;;11.85;32.68;95412.03;5071205;28;20029;-79
2023/02/20 10:36:24;;;;;;;2.38;1.08;;;;;;;11.90;33.13;95411.69;5054934;28;20051;-79
2023/02/20 10:39:08;;;;;;;3.10;1.02;;;;;;;12.04;32.86;95403.59;5071161;28;20056;-79
2023/02/20 10:41:41;;;;;;;2.80;1.10;;;;;;;12.06;32.32;95388.69;5071221;28;20037;-79
2023/02/20 10:44:15;;;;;;;2.53;0.80;;;;;;;12.30;31.11;95400.69;5054631;28;20032;-79
2023/02/20 10:47:05;;;;;;;2.05;0.85;;;;;;;12.16;31.28;95408.78;5071223;28;20039;-79
2023/02/20 10:49:35;;;;;;;1.30;0.70;;;;;;;12.16;30.87;95398.38;5072162;28;20033;-79
2023/02/20 10:52:01;;;;;;;2.42;1.40;;;;;;;12.06;30.90;95400.88;5054196;28;20036;-79
2023/02/20 10:54:32;;;;;;;2.72;0.90;;;;;;;12.17;30.78;95402.63;5037521;28;20082;-79
2023/02/20 10:57:10;;;;;;;1.60;0.93;;;;;;;12.15;31.68;95383.72;5070752;28;20029;-79
2023/02/20 10:59:58;;;;;;;2.28;1.10;;;;;;;12.23;31.06;95392.56;5072158;28;20101;-79
2023/02/20 11:02:25;;;;;;;5.53;1.25;;;;;;;12.30;30.86;95372.84;5055003;28;20090;-79
2023/02/20 11:04:56;;;;;;;3.97;1.10;;;;;;;12.41;31.47;95389.41;5037745;28;20313;-79
2023/02/20 11:07:22;;;;;;;1.77;0.95;;;;;;;12.37;30.79;95380.19;5054177;28;20036;-79
2023/02/20 11:09:48;;;;;;;2.50;1.20;;;;;;;12.48;30.98;95391.41;5053960;28;20039;-79
2023/02/20 11:12:31;;;;;;;1.85;1.10;;;;;;;12.47;31.18;95399.34;5053976;28;20048;-79
2023/02/20 11:14:57;;;;;;;1.95;0.90;;;;;;;12.37;30.57;95373.22;5071769;28;20085;-79
2023/02/20 11:17:25;;;;;;;1.90;0.90;;;;;;;12.50;30.82;95373.03;5054204;28;20119;-79
2023/02/20 11:20:03;;;;;;;1.25;0.85;;;;;;;12.74;31.31;95381.44;5070286;28;20043;-79
2023/02/20 11:22:43;;;;;;;4.88;0.90;;;;;;;12.88;31.30;95395.13;5054829;28;20212;-79
2023/02/20 11:25:15;;;;;;;2.33;1.20;;;;;;;12.88;31.32;95376.88;5054169;28;20028;-79
2023/02/20 11:27:41;;;;;;;2.03;1.00;;;;;;;12.81;31.71;95373.09;5071104;28;20032;-79
2023/02/20 11:30:27;;;;;;;2.05;0.90;;;;;;;12.80;31.63;95374.91;5070329;28;20477;-79
2023/02/20 11:33:05;;;;;;;1.90;1.00;;;;;;;12.97;31.86;95368.28;5054407;28;20066;-79
2023/02/20 11:35:34;;;;;;;2.75;0.90;;;;;;;13.12;31.59;95368.75;5069900;28;20301;-79
2023/02/20 11:38:17;;;;;;;3.58;1.40;;;;;;;13.18;31.51;95363.88;5069927;28;20051;-79
2023/02/20 11:41:07;;;;;;;1.55;0.73;;;;;;;13.05;31.36;95376.28;5071240;28;20036;-79
2023/02/20 11:43:33;;;;;;;4.93;1.70;;;;;;;13.00;31.31;95375.84;5059519;28;20093;-79
2023/02/20 11:46:15;;;;;;;6.10;2.47;;;;;;;13.01;31.68;95371.44;5069953;28;20025;-79
2023/02/20 11:48:55;;;;;;;3.80;1.90;;;;;;;12.82;32.14;95375.59;5069957;28;20032;-79
2023/02/20 11:51:32;;;;;;;3.55;2.80;;;;;;;12.96;31.84;95375.28;5069925;28;20142;-79
2023/02/20 11:54:21;;;;;;;4.47;1.02;;;;;;;12.79;32.23;95367.19;5053340;28;20033;-79
2023/02/20 11:57:01;;;;;;;3.10;1.55;;;;;;;12.79;31.92;95367.19;5069957;28;20025;-79
2023/02/20 11:59:33;;;;;;;2.35;1.00;;;;;;;12.65;32.39;95339.69;5069534;28;20517;-79
2023/02/20 12:02:16;;;;;;;1.30;0.77;;;;;;;12.94;32.09;95353.72;5069776;28;20047;-79
2023/02/20 12:04:42;;;;;;;3.45;1.60;;;;;;;12.92;32.22;95368.66;5070950;28;20029;-79
2023/02/20 12:07:24;;;;;;;3.25;1.33;;;;;;;12.73;32.60;95347.66;5069809;28;20032;-79
2023/02/20 12:09:50;;;;;;;2.17;1.00;;;;;;;12.86;31.78;95369.16;5070731;28;20033;-79